sensor_id;sensor_type;location;lat;lon;timestamp;P1;durP1;ratioP1;P2;durP2;ratioP2
19891;SDS011;10108;50.142;8.724;2022-09-27T00:02:17;15.40;;;13.32;;
19891;SDS011;10108;50.142;8.724;2022-09-27T00:04:43;13.20;;;11.90;;
19891;SDS011;10108;50.142;8.724;2022-09-27T00:07:09;13.95;;;12.50;;
19891;SDS011;10108;50.142;8.724;2022-09-27T00:09:36;13.10;;;12.00;;
19891;SDS011;10108;50.142;8.724;2022-09-27T00:12:02;13.30;;;11.90;;
19891;SDS011;10108;50.142;8.724;2022-09-27T00:14:29;13.38;;;12.18;;
19891;SDS011;10108;50.142;8.724;2022-09-27T00:16:55;13.60;;;12.35;;
19891;SDS011;10108;50.142;8.724;2022-09-27T00:19:21;14.25;;;12.82;;
19891;SDS011;10108;50.142;8.724;2022-09-27T00:21:50;14.80;;;13.40;;
19891;SDS011;10108;50.142;8.724;2022-09-27T00:24:17;13.85;;;12.60;;
19891;SDS011;10108;50.142;8.724;2022-09-27T00:26:46;13.77;;;12.48;;
19891;SDS011;10108;50.142;8.724;2022-09-27T00:29:13;14.77;;;13.27;;
19891;SDS011;10108;50.142;8.724;2022-09-27T00:31:41;14.48;;;13.18;;
19891;SDS011;10108;50.142;8.724;2022-09-27T00:34:09;13.95;;;12.60;;
19891;SDS011;10108;50.142;8.724;2022-09-27T00:36:42;13.98;;;12.75;;
19891;SDS011;10108;50.142;8.724;2022-09-27T00:39:08;13.80;;;12.50;;
19891;SDS011;10108;50.142;8.724;2022-09-27T00:41:35;13.80;;;12.60;;
19891;SDS011;10108;50.142;8.724;2022-09-27T00:49:42;13.50;;;12.20;;
19891;SDS011;10108;50.142;8.724;2022-09-27T00:54:53;12.40;;;11.30;;
19891;SDS011;10108;50.142;8.724;2022-09-27T00:57:31;12.63;;;11.32;;
19891;SDS011;10108;50.142;8.724;2022-09-27T00:59:59;12.27;;;11.13;;
19891;SDS011;10108;50.142;8.724;2022-09-27T01:02:29;12.30;;;11.20;;
19891;SDS011;10108;50.142;8.724;2022-09-27T01:04:56;11.95;;;10.85;;
19891;SDS011;10108;50.142;8.724;2022-09-27T01:07:22;12.60;;;11.50;;
19891;SDS011;10108;50.142;8.724;2022-09-27T01:09:48;12.32;;;11.20;;
19891;SDS011;10108;50.142;8.724;2022-09-27T01:15:16;12.18;;;11.07;;
19891;SDS011;10108;50.142;8.724;2022-09-27T01:18:05;12.55;;;11.32;;
19891;SDS011;10108;50.142;8.724;2022-09-27T01:35:09;12.38;;;11.20;;
19891;SDS011;10108;50.142;8.724;2022-09-27T01:38:06;12.60;;;11.30;;
19891;SDS011;10108;50.142;8.724;2022-09-27T01:46:15;12.60;;;11.30;;
19891;SDS011;10108;50.142;8.724;2022-09-27T01:49:07;12.77;;;11.27;;
19891;SDS011;10108;50.142;8.724;2022-09-27T01:51:45;12.57;;;11.38;;
19891;SDS011;10108;50.142;8.724;2022-09-27T01:54:25;12.70;;;11.40;;
19891;SDS011;10108;50.142;8.724;2022-09-27T01:57:11;12.20;;;10.95;;
19891;SDS011;10108;50.142;8.724;2022-09-27T01:59:46;12.10;;;10.90;;
19891;SDS011;10108;50.142;8.724;2022-09-27T02:02:59;12.00;;;10.90;;
19891;SDS011;10108;50.142;8.724;2022-09-27T02:05:42;12.43;;;11.32;;
19891;SDS011;10108;50.142;8.724;2022-09-27T02:11:15;12.90;;;11.63;;
19891;SDS011;10108;50.142;8.724;2022-09-27T02:14:10;12.98;;;11.20;;
19891;SDS011;10108;50.142;8.724;2022-09-27T02:17:22;13.63;;;11.40;;
19891;SDS011;10108;50.142;8.724;2022-09-27T02:19:52;12.40;;;11.20;;
19891;SDS011;10108;50.142;8.724;2022-09-27T02:22:35;12.90;;;11.70;;
19891;SDS011;10108;50.142;8.724;2022-09-27T02:25:13;14.57;;;11.23;;
19891;SDS011;10108;50.142;8.724;2022-09-27T02:28:02;12.70;;;11.27;;
19891;SDS011;10108;50.142;8.724;2022-09-27T02:30:50;13.18;;;11.30;;
19891;SDS011;10108;50.142;8.724;2022-09-27T02:33:25;12.80;;;11.00;;
19891;SDS011;10108;50.142;8.724;2022-09-27T02:35:55;12.00;;;10.90;;
19891;SDS011;10108;50.142;8.724;2022-09-27T02:38:22;12.57;;;11.27;;
19891;SDS011;10108;50.142;8.724;2022-09-27T02:40:49;12.00;;;10.80;;
19891;SDS011;10108;50.142;8.724;2022-09-27T02:43:15;12.40;;;11.20;;
19891;SDS011;10108;50.142;8.724;2022-09-27T02:51:06;12.60;;;11.18;;
19891;SDS011;10108;50.142;8.724;2022-09-27T02:57:02;12.40;;;11.13;;
19891;SDS011;10108;50.142;8.724;2022-09-27T02:59:59;11.85;;;10.75;;
19891;SDS011;10108;50.142;8.724;2022-09-27T03:03:12;12.32;;;11.05;;
19891;SDS011;10108;50.142;8.724;2022-09-27T03:05:51;14.95;;;11.57;;
19891;SDS011;10108;50.142;8.724;2022-09-27T03:08:26;12.95;;;11.65;;
19891;SDS011;10108;50.142;8.724;2022-09-27T03:10:52;12.48;;;11.18;;
19891;SDS011;10108;50.142;8.724;2022-09-27T03:13:18;13.65;;;11.55;;
19891;SDS011;10108;50.142;8.724;2022-09-27T03:15:45;13.45;;;11.40;;
19891;SDS011;10108;50.142;8.724;2022-09-27T03:18:17;12.43;;;11.13;;
19891;SDS011;10108;50.142;8.724;2022-09-27T03:21:12;13.60;;;10.98;;
19891;SDS011;10108;50.142;8.724;2022-09-27T03:23:38;11.88;;;10.68;;
19891;SDS011;10108;50.142;8.724;2022-09-27T03:26:04;14.60;;;11.10;;
19891;SDS011;10108;50.142;8.724;2022-09-27T03:28:30;11.88;;;10.60;;
19891;SDS011;10108;50.142;8.724;2022-09-27T03:30:57;12.10;;;10.90;;
19891;SDS011;10108;50.142;8.724;2022-09-27T03:33:46;13.57;;;10.48;;
19891;SDS011;10108;50.142;8.724;2022-09-27T03:36:12;12.45;;;10.77;;
19891;SDS011;10108;50.142;8.724;2022-09-27T03:38:38;12.30;;;10.60;;
19891;SDS011;10108;50.142;8.724;2022-09-27T03:41:07;11.80;;;10.60;;
19891;SDS011;10108;50.142;8.724;2022-09-27T03:43:34;11.93;;;10.57;;
19891;SDS011;10108;50.142;8.724;2022-09-27T03:46:02;14.88;;;10.45;;
19891;SDS011;10108;50.142;8.724;2022-09-27T03:48:29;11.93;;;10.57;;
19891;SDS011;10108;50.142;8.724;2022-09-27T03:50:55;11.30;;;10.10;;
19891;SDS011;10108;50.142;8.724;2022-09-27T03:53:22;11.68;;;10.63;;
19891;SDS011;10108;50.142;8.724;2022-09-27T03:55:48;11.85;;;10.80;;
19891;SDS011;10108;50.142;8.724;2022-09-27T03:58:14;12.57;;;10.95;;
19891;SDS011;10108;50.142;8.724;2022-09-27T04:00:40;12.70;;;11.50;;
19891;SDS011;10108;50.142;8.724;2022-09-27T04:03:08;12.70;;;11.60;;
19891;SDS011;10108;50.142;8.724;2022-09-27T04:05:38;12.00;;;10.90;;
19891;SDS011;10108;50.142;8.724;2022-09-27T04:08:12;12.05;;;10.95;;
19891;SDS011;10108;50.142;8.724;2022-09-27T04:10:40;12.25;;;11.15;;
19891;SDS011;10108;50.142;8.724;2022-09-27T04:13:07;12.07;;;10.95;;
19891;SDS011;10108;50.142;8.724;2022-09-27T04:15:41;12.20;;;11.10;;
19891;SDS011;10108;50.142;8.724;2022-09-27T04:18:26;12.95;;;11.85;;
19891;SDS011;10108;50.142;8.724;2022-09-27T04:20:54;12.10;;;11.00;;
19891;SDS011;10108;50.142;8.724;2022-09-27T04:23:21;11.50;;;10.50;;
19891;SDS011;10108;50.142;8.724;2022-09-27T04:25:50;11.80;;;10.80;;
19891;SDS011;10108;50.142;8.724;2022-09-27T04:28:36;11.57;;;10.55;;
19891;SDS011;10108;50.142;8.724;2022-09-27T04:31:03;11.40;;;10.40;;
19891;SDS011;10108;50.142;8.724;2022-09-27T04:33:47;11.45;;;10.38;;
19891;SDS011;10108;50.142;8.724;2022-09-27T04:36:19;11.45;;;10.40;;
19891;SDS011;10108;50.142;8.724;2022-09-27T04:39:05;12.07;;;10.95;;
19891;SDS011;10108;50.142;8.724;2022-09-27T04:41:36;11.38;;;10.38;;
19891;SDS011;10108;50.142;8.724;2022-09-27T04:44:02;11.95;;;10.80;;
19891;SDS011;10108;50.142;8.724;2022-09-27T04:46:31;11.50;;;10.50;;
19891;SDS011;10108;50.142;8.724;2022-09-27T04:48:58;11.57;;;10.30;;
19891;SDS011;10108;50.142;8.724;2022-09-27T04:51:26;11.95;;;10.48;;
19891;SDS011;10108;50.142;8.724;2022-09-27T04:53:54;11.13;;;10.13;;
19891;SDS011;10108;50.142;8.724;2022-09-27T04:56:25;11.40;;;10.40;;
19891;SDS011;10108;50.142;8.724;2022-09-27T04:58:52;11.27;;;10.18;;
19891;SDS011;10108;50.142;8.724;2022-09-27T05:01:18;11.27;;;10.27;;
19891;SDS011;10108;50.142;8.724;2022-09-27T05:03:56;11.05;;;10.00;;
19891;SDS011;10108;50.142;8.724;2022-09-27T05:06:24;10.50;;;9.50;;
19891;SDS011;10108;50.142;8.724;2022-09-27T05:08:50;10.63;;;9.63;;
19891;SDS011;10108;50.142;8.724;2022-09-27T05:11:17;11.00;;;10.00;;
19891;SDS011;10108;50.142;8.724;2022-09-27T05:14:03;11.15;;;9.95;;
19891;SDS011;10108;50.142;8.724;2022-09-27T05:16:34;10.60;;;9.60;;
19891;SDS011;10108;50.142;8.724;2022-09-27T05:19:19;10.55;;;9.55;;
19891;SDS011;10108;50.142;8.724;2022-09-27T05:22:04;11.10;;;10.00;;
19891;SDS011;10108;50.142;8.724;2022-09-27T05:24:31;10.00;;;9.05;;
19891;SDS011;10108;50.142;8.724;2022-09-27T05:26:59;10.32;;;9.25;;
19891;SDS011;10108;50.142;8.724;2022-09-27T05:29:25;10.60;;;9.30;;
19891;SDS011;10108;50.142;8.724;2022-09-27T05:32:04;10.10;;;8.95;;
19891;SDS011;10108;50.142;8.724;2022-09-27T05:34:30;9.80;;;8.77;;
19891;SDS011;10108;50.142;8.724;2022-09-27T05:36:57;10.98;;;9.30;;
19891;SDS011;10108;50.142;8.724;2022-09-27T05:39:24;10.55;;;9.55;;
19891;SDS011;10108;50.142;8.724;2022-09-27T05:41:50;9.90;;;8.85;;
19891;SDS011;10108;50.142;8.724;2022-09-27T05:44:19;9.57;;;8.68;;
19891;SDS011;10108;50.142;8.724;2022-09-27T05:46:54;10.38;;;9.38;;
19891;SDS011;10108;50.142;8.724;2022-09-27T05:49:20;10.07;;;9.10;;
19891;SDS011;10108;50.142;8.724;2022-09-27T05:51:46;10.00;;;8.27;;
19891;SDS011;10108;50.142;8.724;2022-09-27T05:54:12;9.98;;;8.77;;
19891;SDS011;10108;50.142;8.724;2022-09-27T05:56:39;10.45;;;8.32;;
19891;SDS011;10108;50.142;8.724;2022-09-27T05:59:11;9.85;;;8.55;;
19891;SDS011;10108;50.142;8.724;2022-09-27T06:01:56;9.93;;;8.30;;
19891;SDS011;10108;50.142;8.724;2022-09-27T06:04:48;8.95;;;8.05;;
19891;SDS011;10108;50.142;8.724;2022-09-27T06:07:40;10.15;;;8.25;;
19891;SDS011;10108;50.142;8.724;2022-09-27T06:10:15;9.45;;;8.55;;
19891;SDS011;10108;50.142;8.724;2022-09-27T06:12:42;9.05;;;8.02;;
19891;SDS011;10108;50.142;8.724;2022-09-27T06:15:40;8.75;;;7.95;;
19891;SDS011;10108;50.142;8.724;2022-09-27T06:18:11;7.65;;;6.85;;
19891;SDS011;10108;50.142;8.724;2022-09-27T06:20:44;8.00;;;7.20;;
19891;SDS011;10108;50.142;8.724;2022-09-27T06:23:11;7.47;;;6.70;;
19891;SDS011;10108;50.142;8.724;2022-09-27T06:25:39;8.95;;;7.13;;
19891;SDS011;10108;50.142;8.724;2022-09-27T06:28:15;7.32;;;6.63;;
19891;SDS011;10108;50.142;8.724;2022-09-27T06:30:44;7.63;;;6.82;;
19891;SDS011;10108;50.142;8.724;2022-09-27T06:33:26;7.05;;;6.22;;
19891;SDS011;10108;50.142;8.724;2022-09-27T06:35:59;7.93;;;7.13;;
19891;SDS011;10108;50.142;8.724;2022-09-27T06:38:27;10.18;;;7.10;;
19891;SDS011;10108;50.142;8.724;2022-09-27T06:41:05;7.65;;;6.85;;
19891;SDS011;10108;50.142;8.724;2022-09-27T06:44:09;8.50;;;5.95;;
19891;SDS011;10108;50.142;8.724;2022-09-27T06:46:35;7.90;;;6.30;;
19891;SDS011;10108;50.142;8.724;2022-09-27T06:49:21;7.03;;;5.97;;
19891;SDS011;10108;50.142;8.724;2022-09-27T06:51:48;9.95;;;6.60;;
19891;SDS011;10108;50.142;8.724;2022-09-27T06:54:14;7.20;;;6.50;;
19891;SDS011;10108;50.142;8.724;2022-09-27T06:56:41;9.50;;;6.70;;
19891;SDS011;10108;50.142;8.724;2022-09-27T06:59:07;7.00;;;6.30;;
19891;SDS011;10108;50.142;8.724;2022-09-27T07:02:11;7.10;;;6.40;;
19891;SDS011;10108;50.142;8.724;2022-09-27T07:05:17;7.80;;;6.05;;
19891;SDS011;10108;50.142;8.724;2022-09-27T07:08:16;6.93;;;5.95;;
19891;SDS011;10108;50.142;8.724;2022-09-27T07:10:43;7.18;;;6.30;;
19891;SDS011;10108;50.142;8.724;2022-09-27T07:13:09;7.38;;;5.82;;
19891;SDS011;10108;50.142;8.724;2022-09-27T07:15:36;7.75;;;6.50;;
19891;SDS011;10108;50.142;8.724;2022-09-27T07:18:08;6.72;;;6.03;;
19891;SDS011;10108;50.142;8.724;2022-09-27T07:20:34;6.88;;;6.13;;
19891;SDS011;10108;50.142;8.724;2022-09-27T07:23:04;7.40;;;6.32;;
19891;SDS011;10108;50.142;8.724;2022-09-27T07:25:32;6.93;;;6.20;;
19891;SDS011;10108;50.142;8.724;2022-09-27T07:28:03;6.88;;;6.18;;
19891;SDS011;10108;50.142;8.724;2022-09-27T07:30:32;6.90;;;5.95;;
19891;SDS011;10108;50.142;8.724;2022-09-27T07:33:00;5.75;;;5.22;;
19891;SDS011;10108;50.142;8.724;2022-09-27T07:35:28;6.07;;;5.47;;
19891;SDS011;10108;50.142;8.724;2022-09-27T07:37:55;6.25;;;5.65;;
19891;SDS011;10108;50.142;8.724;2022-09-27T07:40:22;6.07;;;5.38;;
19891;SDS011;10108;50.142;8.724;2022-09-27T07:42:55;7.32;;;5.20;;
19891;SDS011;10108;50.142;8.724;2022-09-27T07:45:24;9.48;;;5.88;;
19891;SDS011;10108;50.142;8.724;2022-09-27T07:48:04;7.30;;;5.50;;
19891;SDS011;10108;50.142;8.724;2022-09-27T07:50:51;6.05;;;5.45;;
19891;SDS011;10108;50.142;8.724;2022-09-27T07:53:34;6.15;;;5.07;;
19891;SDS011;10108;50.142;8.724;2022-09-27T07:56:19;6.80;;;5.50;;
19891;SDS011;10108;50.142;8.724;2022-09-27T07:58:45;6.38;;;5.38;;
19891;SDS011;10108;50.142;8.724;2022-09-27T08:01:12;5.90;;;5.30;;
19891;SDS011;10108;50.142;8.724;2022-09-27T08:03:38;5.50;;;4.80;;
19891;SDS011;10108;50.142;8.724;2022-09-27T08:06:05;7.63;;;5.47;;
19891;SDS011;10108;50.142;8.724;2022-09-27T08:08:31;6.25;;;5.05;;
19891;SDS011;10108;50.142;8.724;2022-09-27T08:10:58;6.93;;;5.60;;
19891;SDS011;10108;50.142;8.724;2022-09-27T08:13:24;7.20;;;5.75;;
19891;SDS011;10108;50.142;8.724;2022-09-27T08:15:52;6.35;;;5.60;;
19891;SDS011;10108;50.142;8.724;2022-09-27T08:18:19;6.63;;;5.70;;
19891;SDS011;10108;50.142;8.724;2022-09-27T08:20:54;10.52;;;5.00;;
19891;SDS011;10108;50.142;8.724;2022-09-27T08:23:32;7.43;;;5.60;;
19891;SDS011;10108;50.142;8.724;2022-09-27T08:26:21;6.75;;;5.47;;
19891;SDS011;10108;50.142;8.724;2022-09-27T08:28:59;6.93;;;5.30;;
19891;SDS011;10108;50.142;8.724;2022-09-27T08:31:28;8.40;;;5.32;;
19891;SDS011;10108;50.142;8.724;2022-09-27T08:33:55;6.18;;;5.35;;
19891;SDS011;10108;50.142;8.724;2022-09-27T08:36:23;6.85;;;5.20;;
19891;SDS011;10108;50.142;8.724;2022-09-27T08:38:50;6.05;;;5.45;;
19891;SDS011;10108;50.142;8.724;2022-09-27T08:49:51;7.28;;;5.22;;
19891;SDS011;10108;50.142;8.724;2022-09-27T08:52:31;7.22;;;5.28;;
19891;SDS011;10108;50.142;8.724;2022-09-27T08:57:54;5.82;;;5.22;;
19891;SDS011;10108;50.142;8.724;2022-09-27T09:00:24;8.00;;;5.07;;
19891;SDS011;10108;50.142;8.724;2022-09-27T09:02:53;6.97;;;5.28;;
19891;SDS011;10108;50.142;8.724;2022-09-27T09:05:28;7.97;;;5.50;;
19891;SDS011;10108;50.142;8.724;2022-09-27T09:10:56;7.18;;;5.22;;
19891;SDS011;10108;50.142;8.724;2022-09-27T09:16:43;8.43;;;5.68;;
19891;SDS011;10108;50.142;8.724;2022-09-27T09:22:27;6.15;;;4.85;;
19891;SDS011;10108;50.142;8.724;2022-09-27T09:30:23;7.85;;;5.07;;
19891;SDS011;10108;50.142;8.724;2022-09-27T09:35:27;7.18;;;5.15;;
19891;SDS011;10108;50.142;8.724;2022-09-27T09:38:11;7.93;;;5.22;;
19891;SDS011;10108;50.142;8.724;2022-09-27T09:40:46;5.40;;;4.90;;
19891;SDS011;10108;50.142;8.724;2022-09-27T09:45:48;6.05;;;4.85;;
19891;SDS011;10108;50.142;8.724;2022-09-27T09:48:23;6.55;;;4.78;;
19891;SDS011;10108;50.142;8.724;2022-09-27T09:50:53;8.88;;;5.00;;
19891;SDS011;10108;50.142;8.724;2022-09-27T09:53:44;6.88;;;4.53;;
19891;SDS011;10108;50.142;8.724;2022-09-27T09:56:32;8.70;;;5.28;;
19891;SDS011;10108;50.142;8.724;2022-09-27T09:59:02;5.40;;;4.80;;
19891;SDS011;10108;50.142;8.724;2022-09-27T10:04:05;6.55;;;5.20;;
19891;SDS011;10108;50.142;8.724;2022-09-27T10:06:31;6.88;;;4.95;;
19891;SDS011;10108;50.142;8.724;2022-09-27T10:09:00;8.20;;;5.25;;
19891;SDS011;10108;50.142;8.724;2022-09-27T10:11:41;8.73;;;5.20;;
19891;SDS011;10108;50.142;8.724;2022-09-27T10:14:15;6.55;;;5.43;;
19891;SDS011;10108;50.142;8.724;2022-09-27T10:16:45;6.78;;;5.05;;
19891;SDS011;10108;50.142;8.724;2022-09-27T10:19:19;7.70;;;5.30;;
19891;SDS011;10108;50.142;8.724;2022-09-27T10:21:51;6.35;;;5.10;;
19891;SDS011;10108;50.142;8.724;2022-09-27T10:24:18;6.75;;;5.05;;
19891;SDS011;10108;50.142;8.724;2022-09-27T10:27:03;6.20;;;5.05;;
19891;SDS011;10108;50.142;8.724;2022-09-27T10:29:34;8.10;;;5.10;;
19891;SDS011;10108;50.142;8.724;2022-09-27T10:32:03;6.28;;;5.35;;
19891;SDS011;10108;50.142;8.724;2022-09-27T10:34:41;9.85;;;5.47;;
19891;SDS011;10108;50.142;8.724;2022-09-27T10:39:40;6.53;;;5.30;;
19891;SDS011;10108;50.142;8.724;2022-09-27T10:45:19;7.22;;;5.30;;
19891;SDS011;10108;50.142;8.724;2022-09-27T10:47:59;5.72;;;5.03;;
19891;SDS011;10108;50.142;8.724;2022-09-27T10:50:40;5.78;;;4.97;;
19891;SDS011;10108;50.142;8.724;2022-09-27T10:53:31;5.65;;;4.68;;
19891;SDS011;10108;50.142;8.724;2022-09-27T10:56:06;5.68;;;5.10;;
19891;SDS011;10108;50.142;8.724;2022-09-27T10:58:44;6.00;;;5.25;;
19891;SDS011;10108;50.142;8.724;2022-09-27T11:01:12;9.07;;;8.18;;
19891;SDS011;10108;50.142;8.724;2022-09-27T11:03:58;10.40;;;9.40;;
19891;SDS011;10108;50.142;8.724;2022-09-27T11:06:27;10.35;;;9.02;;
19891;SDS011;10108;50.142;8.724;2022-09-27T11:09:08;10.85;;;9.85;;
19891;SDS011;10108;50.142;8.724;2022-09-27T11:11:49;10.40;;;9.05;;
19891;SDS011;10108;50.142;8.724;2022-09-27T11:14:17;10.73;;;9.65;;
19891;SDS011;10108;50.142;8.724;2022-09-27T11:16:57;10.57;;;8.50;;
19891;SDS011;10108;50.142;8.724;2022-09-27T11:20:09;10.00;;;9.00;;
19891;SDS011;10108;50.142;8.724;2022-09-27T11:28:32;9.43;;;8.38;;
19891;SDS011;10108;50.142;8.724;2022-09-27T11:31:06;9.20;;;8.30;;
19891;SDS011;10108;50.142;8.724;2022-09-27T11:34:10;9.15;;;7.97;;
19891;SDS011;10108;50.142;8.724;2022-09-27T11:51:17;7.35;;;6.65;;
19891;SDS011;10108;50.142;8.724;2022-09-27T11:56:49;6.93;;;6.32;;
19891;SDS011;10108;50.142;8.724;2022-09-27T12:08:17;6.82;;;6.00;;
19891;SDS011;10108;50.142;8.724;2022-09-27T12:10:57;7.60;;;5.78;;
19891;SDS011;10108;50.142;8.724;2022-09-27T12:13:34;6.72;;;6.00;;
19891;SDS011;10108;50.142;8.724;2022-09-27T12:16:04;6.63;;;6.00;;
19891;SDS011;10108;50.142;8.724;2022-09-27T12:18:35;6.95;;;6.25;;
19891;SDS011;10108;50.142;8.724;2022-09-27T12:21:20;6.82;;;6.10;;
19891;SDS011;10108;50.142;8.724;2022-09-27T12:23:48;7.40;;;6.00;;
19891;SDS011;10108;50.142;8.724;2022-09-27T12:26:36;7.43;;;5.93;;
19891;SDS011;10108;50.142;8.724;2022-09-27T12:29:22;6.85;;;5.90;;
19891;SDS011;10108;50.142;8.724;2022-09-27T12:32:17;7.18;;;6.22;;
19891;SDS011;10108;50.142;8.724;2022-09-27T12:34:55;6.85;;;5.88;;
19891;SDS011;10108;50.142;8.724;2022-09-27T12:38:01;10.18;;;5.90;;
19891;SDS011;10108;50.142;8.724;2022-09-27T12:40:37;7.18;;;5.80;;
19891;SDS011;10108;50.142;8.724;2022-09-27T12:43:11;6.65;;;6.03;;
19891;SDS011;10108;50.142;8.724;2022-09-27T12:51:32;7.72;;;5.97;;
19891;SDS011;10108;50.142;8.724;2022-09-27T13:04:47;6.70;;;5.68;;
19891;SDS011;10108;50.142;8.724;2022-09-27T13:13:26;8.05;;;5.50;;
19891;SDS011;10108;50.142;8.724;2022-09-27T13:15:56;10.00;;;5.60;;
19891;SDS011;10108;50.142;8.724;2022-09-27T13:18:31;8.40;;;5.70;;
19891;SDS011;10108;50.142;8.724;2022-09-27T13:36:04;10.38;;;5.68;;
19891;SDS011;10108;50.142;8.724;2022-09-27T13:38:30;7.97;;;5.88;;
19891;SDS011;10108;50.142;8.724;2022-09-27T13:41:16;6.45;;;5.68;;
19891;SDS011;10108;50.142;8.724;2022-09-27T13:44:02;9.45;;;6.28;;
19891;SDS011;10108;50.142;8.724;2022-09-27T13:46:48;7.25;;;6.10;;
19891;SDS011;10108;50.142;8.724;2022-09-27T13:49:37;8.02;;;5.82;;
19891;SDS011;10108;50.142;8.724;2022-09-27T14:00:09;9.50;;;6.47;;
19891;SDS011;10108;50.142;8.724;2022-09-27T14:05:34;8.95;;;7.18;;
19891;SDS011;10108;50.142;8.724;2022-09-27T14:08:06;9.80;;;8.43;;
19891;SDS011;10108;50.142;8.724;2022-09-27T14:10:51;9.02;;;8.13;;
19891;SDS011;10108;50.142;8.724;2022-09-27T14:13:18;9.43;;;8.43;;
19891;SDS011;10108;50.142;8.724;2022-09-27T14:15:55;8.73;;;7.80;;
19891;SDS011;10108;50.142;8.724;2022-09-27T14:18:26;9.35;;;7.80;;
19891;SDS011;10108;50.142;8.724;2022-09-27T14:21:07;8.60;;;7.80;;
19891;SDS011;10108;50.142;8.724;2022-09-27T14:23:50;9.30;;;7.90;;
19891;SDS011;10108;50.142;8.724;2022-09-27T14:26:24;8.32;;;7.53;;
19891;SDS011;10108;50.142;8.724;2022-09-27T14:28:52;7.88;;;7.05;;
19891;SDS011;10108;50.142;8.724;2022-09-27T14:31:25;7.65;;;6.85;;
19891;SDS011;10108;50.142;8.724;2022-09-27T14:34:13;7.47;;;6.20;;
19891;SDS011;10108;50.142;8.724;2022-09-27T14:36:47;8.43;;;6.22;;
19891;SDS011;10108;50.142;8.724;2022-09-27T14:39:42;8.20;;;6.28;;
19891;SDS011;10108;50.142;8.724;2022-09-27T14:42:27;6.45;;;5.80;;
19891;SDS011;10108;50.142;8.724;2022-09-27T14:44:58;7.22;;;5.88;;
19891;SDS011;10108;50.142;8.724;2022-09-27T14:47:27;6.82;;;5.65;;
19891;SDS011;10108;50.142;8.724;2022-09-27T14:49:55;6.93;;;5.90;;
19891;SDS011;10108;50.142;8.724;2022-09-27T14:52:25;6.30;;;5.45;;
19891;SDS011;10108;50.142;8.724;2022-09-27T14:54:55;6.03;;;5.43;;
19891;SDS011;10108;50.142;8.724;2022-09-27T14:57:28;6.78;;;5.72;;
19891;SDS011;10108;50.142;8.724;2022-09-27T14:59:59;7.57;;;5.72;;
19891;SDS011;10108;50.142;8.724;2022-09-27T15:02:41;6.43;;;5.47;;
19891;SDS011;10108;50.142;8.724;2022-09-27T15:05:27;10.30;;;5.60;;
19891;SDS011;10108;50.142;8.724;2022-09-27T15:07:55;6.85;;;5.47;;
19891;SDS011;10108;50.142;8.724;2022-09-27T15:10:26;8.40;;;5.28;;
19891;SDS011;10108;50.142;8.724;2022-09-27T15:12:55;6.55;;;5.25;;
19891;SDS011;10108;50.142;8.724;2022-09-27T15:15:26;7.30;;;5.32;;
19891;SDS011;10108;50.142;8.724;2022-09-27T15:17:57;7.07;;;5.22;;
19891;SDS011;10108;50.142;8.724;2022-09-27T15:20:28;8.80;;;5.30;;
19891;SDS011;10108;50.142;8.724;2022-09-27T15:22:57;6.55;;;5.57;;
19891;SDS011;10108;50.142;8.724;2022-09-27T15:25:28;6.07;;;5.40;;
19891;SDS011;10108;50.142;8.724;2022-09-27T15:28:05;6.63;;;5.20;;
19891;SDS011;10108;50.142;8.724;2022-09-27T15:30:38;6.05;;;5.40;;
19891;SDS011;10108;50.142;8.724;2022-09-27T15:33:07;5.93;;;5.32;;
19891;SDS011;10108;50.142;8.724;2022-09-27T15:35:48;6.10;;;5.05;;
19891;SDS011;10108;50.142;8.724;2022-09-27T15:38:25;5.70;;;5.10;;
19891;SDS011;10108;50.142;8.724;2022-09-27T15:43:32;8.55;;;4.88;;
19891;SDS011;10108;50.142;8.724;2022-09-27T15:51:53;10.05;;;8.63;;
19891;SDS011;10108;50.142;8.724;2022-09-27T15:54:21;13.05;;;8.70;;
19891;SDS011;10108;50.142;8.724;2022-09-27T15:56:50;10.20;;;9.10;;
19891;SDS011;10108;50.142;8.724;2022-09-27T15:59:22;12.52;;;9.27;;
19891;SDS011;10108;50.142;8.724;2022-09-27T16:01:54;9.32;;;8.40;;
19891;SDS011;10108;50.142;8.724;2022-09-27T16:04:21;9.05;;;8.15;;
19891;SDS011;10108;50.142;8.724;2022-09-27T16:06:47;9.85;;;8.45;;
19891;SDS011;10108;50.142;8.724;2022-09-27T16:09:17;9.05;;;8.15;;
19891;SDS011;10108;50.142;8.724;2022-09-27T16:11:45;9.48;;;7.93;;
19891;SDS011;10108;50.142;8.724;2022-09-27T16:14:15;13.55;;;8.35;;
19891;SDS011;10108;50.142;8.724;2022-09-27T16:16:43;9.57;;;8.50;;
19891;SDS011;10108;50.142;8.724;2022-09-27T16:19:11;8.98;;;7.70;;
19891;SDS011;10108;50.142;8.724;2022-09-27T16:21:37;9.23;;;8.30;;
19891;SDS011;10108;50.142;8.724;2022-09-27T16:24:04;10.63;;;9.57;;
19891;SDS011;10108;50.142;8.724;2022-09-27T16:26:30;13.60;;;12.25;;
19891;SDS011;10108;50.142;8.724;2022-09-27T16:28:56;13.65;;;12.25;;
19891;SDS011;10108;50.142;8.724;2022-09-27T16:31:22;13.95;;;12.32;;
19891;SDS011;10108;50.142;8.724;2022-09-27T16:33:48;13.55;;;12.20;;
19891;SDS011;10108;50.142;8.724;2022-09-27T16:36:15;12.90;;;11.70;;
19891;SDS011;10108;50.142;8.724;2022-09-27T16:38:50;13.55;;;12.25;;
19891;SDS011;10108;50.142;8.724;2022-09-27T16:41:19;12.90;;;11.70;;
19891;SDS011;10108;50.142;8.724;2022-09-27T16:43:46;13.18;;;11.98;;
19891;SDS011;10108;50.142;8.724;2022-09-27T16:46:14;12.68;;;11.50;;
19891;SDS011;10108;50.142;8.724;2022-09-27T16:48:44;12.60;;;11.40;;
19891;SDS011;10108;50.142;8.724;2022-09-27T16:51:15;12.38;;;11.18;;
19891;SDS011;10108;50.142;8.724;2022-09-27T16:54:02;12.38;;;11.05;;
19891;SDS011;10108;50.142;8.724;2022-09-27T16:56:30;12.02;;;10.68;;
19891;SDS011;10108;50.142;8.724;2022-09-27T16:58:57;13.55;;;10.80;;
19891;SDS011;10108;50.142;8.724;2022-09-27T17:01:29;11.63;;;10.20;;
19891;SDS011;10108;50.142;8.724;2022-09-27T17:03:55;11.35;;;10.15;;
19891;SDS011;10108;50.142;8.724;2022-09-27T17:06:22;13.20;;;9.73;;
19891;SDS011;10108;50.142;8.724;2022-09-27T17:08:48;11.10;;;10.00;;
19891;SDS011;10108;50.142;8.724;2022-09-27T17:11:16;11.30;;;10.15;;
19891;SDS011;10108;50.142;8.724;2022-09-27T17:13:43;12.25;;;10.23;;
19891;SDS011;10108;50.142;8.724;2022-09-27T17:16:10;11.13;;;10.00;;
19891;SDS011;10108;50.142;8.724;2022-09-27T17:18:38;12.02;;;10.10;;
19891;SDS011;10108;50.142;8.724;2022-09-27T17:21:05;13.80;;;10.45;;
19891;SDS011;10108;50.142;8.724;2022-09-27T17:23:32;11.48;;;10.38;;
19891;SDS011;10108;50.142;8.724;2022-09-27T17:26:06;13.63;;;10.30;;
19891;SDS011;10108;50.142;8.724;2022-09-27T17:28:34;13.05;;;10.02;;
19891;SDS011;10108;50.142;8.724;2022-09-27T17:31:02;13.68;;;9.90;;
19891;SDS011;10108;50.142;8.724;2022-09-27T17:33:29;11.00;;;9.77;;
19891;SDS011;10108;50.142;8.724;2022-09-27T17:35:56;11.45;;;10.25;;
19891;SDS011;10108;50.142;8.724;2022-09-27T17:38:24;10.95;;;9.85;;
19891;SDS011;10108;50.142;8.724;2022-09-27T17:40:58;12.85;;;9.95;;
19891;SDS011;10108;50.142;8.724;2022-09-27T17:43:26;13.85;;;10.75;;
19891;SDS011;10108;50.142;8.724;2022-09-27T17:46:04;12.25;;;10.60;;
19891;SDS011;10108;50.142;8.724;2022-09-27T17:48:33;12.35;;;9.75;;
19891;SDS011;10108;50.142;8.724;2022-09-27T17:51:19;11.48;;;10.30;;
19891;SDS011;10108;50.142;8.724;2022-09-27T17:53:45;13.10;;;9.32;;
19891;SDS011;10108;50.142;8.724;2022-09-27T17:56:12;12.35;;;9.52;;
19891;SDS011;10108;50.142;8.724;2022-09-27T17:58:46;13.10;;;9.27;;
19891;SDS011;10108;50.142;8.724;2022-09-27T18:01:13;12.52;;;9.20;;
19891;SDS011;10108;50.142;8.724;2022-09-27T18:03:40;10.30;;;9.20;;
19891;SDS011;10108;50.142;8.724;2022-09-27T18:06:07;10.35;;;9.15;;